Impacts TAF Board INFO
FOR SITUATIONAL AWARENESS. NOT TO BE USED FOR FLIGHT PLANNING PURPOSES.
IDs:

KMTH - Marathon Arpt, FL, US

Issued at 1130 UTC 12 Dec 2017
Updated at 1541 UTC 12 Dec 2017
Potential Impact None Slight Moderate High
Time1453Z 12/16Z 12/17Z 12/18Z 12/19Z 12/20Z 12/21Z 12/22Z 12/23Z 13/00Z 13/01Z 13/02Z 13/03Z 13/04Z>>
Type OBS PRVL PRVL PRVL PRVL PRVL PRVL PRVL PRVL PRVL PRVL PRVL PRVL PRVL
VIS -- >6 >6 >6 >6 >6 >6 >6 >6 >6 >6 >6 >6 >6
CIG -- -- -- -- -- -- -- -- -- -- -- -- -- --
Cover -- FEW FEW SCT SCT SCT SCT SCT SCT SCT SCT SCT SCT SCT
FltCat VFR VFR VFR VFR VFR VFR VFR VFR VFR VFR VFR VFR VFR VFR
WX -- -- -- -- -- -- -- -- -- -- -- -- -- --
WDir 10 20 20 310 310 310 310 310 310 310 310 310 310 310
WSpd 6 5 5 9 9 9 9 9 9 9 9 9 9 9
WGst -- -- -- 18 18 18 18 18 18 18 18 18 18 18

Raw TAF
KMTH 121130Z 1212/1312 02005KT P6SM FEW030
  FM121800 31009G18KT P6SM FEW030 SCT040


Raw METAR
KMTH 121453Z AUTO 01006KT 19/09 A3012 RMK AO2 SLP200 T01890094 50001 $
KMTH 121353Z AUTO 35006KT 10SM CLR 18/09 A3013 RMK AO2 SLP202 T01780089 $
KMTH 121253Z AUTO 35005KT 10SM CLR 16/08 A3012 RMK AO2 SLP199 T01610078 $

METAR Board
Radar Display
Forecast Discussion

FOR SITUATIONAL AWARENESS. NOT TO BE USED FOR FLIGHT PLANNING PURPOSES.